aviador You're here:

LDPL Decoded Metar

PULA in CROATIA
Report Time2017-11-24 03:30:00
UTC Time2017-11-24 03:50:59
Flight Rules ifr IFR
WindVRB at 02 kt
Visibility4200 m
Phenomena:Mist
Clouds:Scattered 016 Hf
Expected CloudBase > 400 ft AGL from Temp-Dew spread
CeilingNone
Temp09°C (ISA -6)
Dew Point08°C (94% RH)
AAT7.8°C
QNH1021 hPa
Density Alt-587 ft
Elevation207 ft
Report Wrong Elevation
Raw Report
LDPL 240330Z AUTO VRB02KT 4200 BR SCT016/// 09/08 Q1021 NOSIG=

Extra information for LDPL:More info

Metar Taf Metar & Taf Last 4 Metars F.Rules Stats Wind Profile Meteogram Temp Stats Airport Information Weather charts Add Link Nearby VenuesMetar ALERT Operation Metar Decoded Social comments